Time;durP1;ratioP1;P1;durP2;ratioP2;P2;SDS_P1;SDS_P2;PMS_P1;PMS_P2;Temp;Humidity;BMP_temperature;BMP_pressure;BME280_temperature;BME280_humidity;BME280_pressure;Samples;Min_cycle;Max_cycle;Signal;HPM_P1;HPM_P2
2021/11/06 00:02:23;;;;;;;;;26.00;21.75;;;;;;;;5081461;27;45324;-68
2021/11/06 00:04:48;;;;;;;;;21.25;17.75;;;;;;;;5078223;27;45482;-67
2021/11/06 00:07:14;;;;;;;;;27.00;22.00;;;;;;;;5075994;27;45507;-67
2021/11/06 00:09:39;;;;;;;;;22.00;21.00;;;;;;;;5084691;27;45490;-67
2021/11/06 00:12:05;;;;;;;;;23.25;20.00;;;;;;;;5082350;27;45790;-67
2021/11/06 00:14:31;;;;;;;;;26.75;21.00;;;;;;;;5105707;27;45739;-68
2021/11/06 00:16:56;;;;;;;;;17.00;16.25;;;;;;;;5084350;27;45373;-67
2021/11/06 00:19:21;;;;;;;;;29.00;21.25;;;;;;;;5090891;27;45336;-67
2021/11/06 00:21:46;;;;;;;;;19.00;17.33;;;;;;;;5083914;27;46486;-68
2021/11/06 00:24:12;;;;;;;;;30.00;20.25;;;;;;;;5079249;27;45627;-67
2021/11/06 00:26:37;;;;;;;;;26.00;23.67;;;;;;;;5079010;27;45514;-67
2021/11/06 00:29:04;;;;;;;;;26.67;22.00;;;;;;;;5077939;27;45408;-67
2021/11/06 00:31:29;;;;;;;;;27.50;21.75;;;;;;;;5064923;27;46465;-68
2021/11/06 00:33:54;;;;;;;;;21.67;17.33;;;;;;;;5077514;27;45322;-67
2021/11/06 00:36:20;;;;;;;;;19.67;19.00;;;;;;;;5085669;27;45564;-67
2021/11/06 00:38:45;;;;;;;;;19.50;16.00;;;;;;;;5082424;27;45448;-67
2021/11/06 00:41:11;;;;;;;;;23.25;19.75;;;;;;;;5079721;27;46041;-67
2021/11/06 00:43:36;;;;;;;;;23.75;17.50;;;;;;;;5090622;27;45378;-67
2021/11/06 00:46:01;;;;;;;;;20.33;18.67;;;;;;;;5074881;27;45460;-67
2021/11/06 00:48:26;;;;;;;;;23.33;18.33;;;;;;;;5090032;27;45496;-67
2021/11/06 00:50:52;;;;;;;;;18.33;17.33;;;;;;;;5086752;27;46676;-67
2021/11/06 00:53:17;;;;;;;;;23.67;19.33;;;;;;;;5087158;27;45439;-67
2021/11/06 00:55:42;;;;;;;;;20.33;20.00;;;;;;;;5077230;27;45536;-67
2021/11/06 00:58:07;;;;;;;;;27.33;19.67;;;;;;;;5076483;27;45284;-67
2021/11/06 01:00:32;;;;;;;;;20.67;19.00;;;;;;;;5085570;27;49020;-67
2021/11/06 01:02:57;;;;;;;;;23.67;18.00;;;;;;;;5085806;27;45413;-68
2021/11/06 01:05:23;;;;;;;;;32.67;19.00;;;;;;;;5086852;27;45792;-67
2021/11/06 01:07:48;;;;;;;;;20.33;17.67;;;;;;;;5070806;27;45797;-67
2021/11/06 01:10:14;;;;;;;;;20.50;19.25;;;;;;;;5090700;27;45587;-67
2021/11/06 01:12:40;;;;;;;;;20.50;18.00;;;;;;;;5080468;27;45435;-67
2021/11/06 01:15:06;;;;;;;;;20.00;17.50;;;;;;;;5078909;27;45551;-67
2021/11/06 01:17:31;;;;;;;;;18.00;15.50;;;;;;;;5081478;27;45405;-67
2021/11/06 01:19:56;;;;;;;;;19.67;16.33;;;;;;;;5087302;27;46522;-67
2021/11/06 01:22:22;;;;;;;;;23.00;19.00;;;;;;;;5079511;27;45480;-67
2021/11/06 01:24:47;;;;;;;;;21.25;19.75;;;;;;;;5079822;27;45438;-67
2021/11/06 01:27:13;;;;;;;;;24.67;20.33;;;;;;;;5076804;27;45324;-67
2021/11/06 01:29:38;;;;;;;;;22.75;19.00;;;;;;;;5079077;27;46348;-67
2021/11/06 01:32:06;;;;;;;;;19.00;16.00;;;;;;;;5086090;27;45530;-67
2021/11/06 01:34:31;;;;;;;;;25.75;19.00;;;;;;;;5077820;27;45612;-67
2021/11/06 01:36:56;;;;;;;;;22.00;18.00;;;;;;;;5078056;27;45443;-67
2021/11/06 01:39:21;;;;;;;;;20.00;18.67;;;;;;;;5079057;27;45444;-67
2021/11/06 01:41:47;;;;;;;;;23.00;18.67;;;;;;;;5079036;27;45489;-67
2021/11/06 01:44:12;;;;;;;;;20.75;15.50;;;;;;;;5075776;27;45421;-67
2021/11/06 01:46:37;;;;;;;;;30.00;20.67;;;;;;;;5081306;27;45271;-67
2021/11/06 01:49:02;;;;;;;;;21.33;19.33;;;;;;;;5077898;27;46574;-67
2021/11/06 01:51:28;;;;;;;;;17.67;17.67;;;;;;;;5081938;27;45370;-67
2021/11/06 01:53:53;;;;;;;;;23.25;20.00;;;;;;;;5081401;27;45398;-67
2021/11/06 01:56:19;;;;;;;;;19.50;18.00;;;;;;;;5079786;27;45421;-67
2021/11/06 01:58:44;;;;;;;;;25.00;19.00;;;;;;;;5075340;27;45419;-67
2021/11/06 02:01:10;;;;;;;;;23.50;21.00;;;;;;;;5078848;27;45470;-67
2021/11/06 02:03:35;;;;;;;;;19.50;19.00;;;;;;;;5089559;27;45439;-67
2021/11/06 02:06:01;;;;;;;;;18.00;18.00;;;;;;;;5080831;27;45419;-67
2021/11/06 02:08:27;;;;;;;;;24.75;20.75;;;;;;;;5078203;27;46627;-67
2021/11/06 02:10:52;;;;;;;;;24.00;19.75;;;;;;;;5088565;27;45356;-67
2021/11/06 02:13:18;;;;;;;;;27.25;22.25;;;;;;;;5074991;27;45856;-67
2021/11/06 02:15:44;;;;;;;;;23.75;20.75;;;;;;;;5082940;27;45682;-67
2021/11/06 02:18:09;;;;;;;;;27.25;19.50;;;;;;;;5078848;27;46733;-67
2021/11/06 02:20:35;;;;;;;;;21.50;17.75;;;;;;;;5077712;27;45441;-67
2021/11/06 02:23:00;;;;;;;;;19.67;19.00;;;;;;;;5078600;27;45472;-67
2021/11/06 02:25:26;;;;;;;;;23.50;22.50;;;;;;;;5074420;27;45526;-67
2021/11/06 02:27:51;;;;;;;;;20.33;18.67;;;;;;;;5085048;27;45432;-67
2021/11/06 02:30:17;;;;;;;;;21.33;17.33;;;;;;;;5078132;27;45429;-67
2021/11/06 02:32:42;;;;;;;;;18.50;17.75;;;;;;;;5084896;27;45512;-67
2021/11/06 02:35:08;;;;;;;;;26.00;19.25;;;;;;;;5072748;27;45454;-67
2021/11/06 02:37:34;;;;;;;;;30.25;22.00;;;;;;;;5076810;27;47011;-67
2021/11/06 02:39:59;;;;;;;;;25.50;21.50;;;;;;;;5080775;27;45400;-67
2021/11/06 02:42:24;;;;;;;;;22.25;19.50;;;;;;;;5081786;27;45447;-67
2021/11/06 02:44:50;;;;;;;;;21.67;19.33;;;;;;;;5084689;27;45442;-67
2021/11/06 02:47:15;;;;;;;;;24.00;18.00;;;;;;;;5090092;27;46209;-67
2021/11/06 02:49:41;;;;;;;;;23.00;17.50;;;;;;;;5085801;27;45446;-67
2021/11/06 02:52:06;;;;;;;;;29.67;22.00;;;;;;;;5078235;27;45460;-68
2021/11/06 02:54:31;;;;;;;;;20.25;18.50;;;;;;;;5083069;27;46490;-67
2021/11/06 02:56:57;;;;;;;;;24.50;20.00;;;;;;;;5083128;27;46289;-68
2021/11/06 02:59:22;;;;;;;;;25.25;18.00;;;;;;;;5077579;27;45575;-67
2021/11/06 03:01:48;;;;;;;;;25.00;18.00;;;;;;;;5075034;27;45377;-67
2021/11/06 03:04:13;;;;;;;;;27.33;19.00;;;;;;;;5083301;27;45333;-67
2021/11/06 03:06:39;;;;;;;;;20.50;17.50;;;;;;;;5082265;27;45527;-67
2021/11/06 03:09:05;;;;;;;;;18.50;16.75;;;;;;;;5080360;27;45481;-67
2021/11/06 03:11:34;;;;;;;;;26.50;23.50;;;;;;;;5076677;27;45459;-67
2021/11/06 03:14:00;;;;;;;;;26.50;22.50;;;;;;;;5078305;27;45493;-67
2021/11/06 03:16:26;;;;;;;;;26.75;19.75;;;;;;;;5082087;27;45437;-67
2021/11/06 03:18:51;;;;;;;;;20.67;17.67;;;;;;;;5091870;27;45316;-67
2021/11/06 03:21:17;;;;;;;;;22.67;18.33;;;;;;;;5080544;27;45491;-67
2021/11/06 03:23:42;;;;;;;;;22.00;19.50;;;;;;;;5079000;27;45521;-67
2021/11/06 03:26:07;;;;;;;;;21.67;17.00;;;;;;;;5077460;27;46053;-67
2021/11/06 03:28:32;;;;;;;;;24.33;23.00;;;;;;;;5085963;27;45434;-67
2021/11/06 03:30:58;;;;;;;;;24.00;18.00;;;;;;;;5088209;27;45421;-67
2021/11/06 03:33:23;;;;;;;;;27.00;20.33;;;;;;;;5087566;27;45429;-67
2021/11/06 03:35:48;;;;;;;;;21.33;20.33;;;;;;;;5079838;27;46512;-67
2021/11/06 03:38:13;;;;;;;;;17.00;15.33;;;;;;;;5080267;27;46914;-67
2021/11/06 03:40:39;;;;;;;;;24.50;18.75;;;;;;;;5090113;27;45767;-67
2021/11/06 03:43:04;;;;;;;;;20.25;18.00;;;;;;;;5081205;27;45428;-67
2021/11/06 03:45:29;;;;;;;;;19.67;17.00;;;;;;;;5091376;27;45639;-67
2021/11/06 03:47:54;;;;;;;;;24.33;21.67;;;;;;;;5084144;27;45425;-67
2021/11/06 03:50:19;;;;;;;;;24.33;20.67;;;;;;;;5077608;27;45431;-67
2021/11/06 03:52:45;;;;;;;;;28.33;24.33;;;;;;;;5076673;27;45524;-67
2021/11/06 03:55:10;;;;;;;;;26.00;24.00;;;;;;;;5088358;27;45513;-67
2021/11/06 03:57:36;;;;;;;;;30.25;26.00;;;;;;;;5093295;27;45766;-67
2021/11/06 04:00:03;;;;;;;;;30.33;26.00;;;;;;;;5083451;27;45717;-67
2021/11/06 04:02:28;;;;;;;;;29.25;28.00;;;;;;;;5103685;27;45386;-67
2021/11/06 04:04:53;;;;;;;;;37.50;32.75;;;;;;;;5074999;27;45697;-67
2021/11/06 04:07:19;;;;;;;;;38.67;31.33;;;;;;;;5081769;27;45428;-67
2021/11/06 04:09:44;;;;;;;;;33.75;30.75;;;;;;;;5093019;27;45510;-67
2021/11/06 04:12:09;;;;;;;;;38.00;33.25;;;;;;;;5088769;27;45539;-67
2021/11/06 04:14:35;;;;;;;;;39.67;35.33;;;;;;;;5086470;27;46488;-67
2021/11/06 04:17:00;;;;;;;;;46.33;38.00;;;;;;;;5089948;27;45372;-67
2021/11/06 04:19:25;;;;;;;;;40.75;35.25;;;;;;;;5090847;27;45411;-67
2021/11/06 04:21:51;;;;;;;;;45.33;39.00;;;;;;;;5096775;27;45523;-67
2021/11/06 04:24:16;;;;;;;;;41.00;33.33;;;;;;;;5077748;27;46209;-67
2021/11/06 04:26:41;;;;;;;;;49.50;39.25;;;;;;;;5083782;27;46506;-67
2021/11/06 04:29:06;;;;;;;;;40.00;36.00;;;;;;;;5086459;27;45424;-67
2021/11/06 04:31:32;;;;;;;;;41.67;34.67;;;;;;;;5074864;27;45361;-67
2021/11/06 04:33:57;;;;;;;;;44.00;40.00;;;;;;;;5093663;27;45528;-67
2021/11/06 04:36:22;;;;;;;;;49.33;39.33;;;;;;;;5079506;27;45909;-67
2021/11/06 04:38:47;;;;;;;;;46.75;38.50;;;;;;;;5083142;27;45595;-68
2021/11/06 04:41:13;;;;;;;;;50.33;40.33;;;;;;;;5079786;27;45364;-67
2021/11/06 04:43:38;;;;;;;;;48.33;40.00;;;;;;;;5075899;27;46145;-67
2021/11/06 04:46:03;;;;;;;;;56.50;40.75;;;;;;;;5077093;27;45465;-67
2021/11/06 04:48:29;;;;;;;;;47.00;41.75;;;;;;;;5092757;27;45496;-67
2021/11/06 04:50:54;;;;;;;;;53.67;43.00;;;;;;;;5076546;27;45519;-67
2021/11/06 04:53:20;;;;;;;;;42.75;39.50;;;;;;;;5078269;27;45938;-67
2021/11/06 04:55:45;;;;;;;;;44.25;38.50;;;;;;;;5077326;27;45497;-67
2021/11/06 04:58:11;;;;;;;;;41.50;39.50;;;;;;;;5074277;27;45618;-67
2021/11/06 05:00:36;;;;;;;;;48.50;38.50;;;;;;;;5077756;27;45472;-67
2021/11/06 05:03:01;;;;;;;;;60.00;40.00;;;;;;;;5076722;27;47009;-67
2021/11/06 05:05:26;;;;;;;;;44.00;40.33;;;;;;;;5083140;27;45293;-67
2021/11/06 05:07:52;;;;;;;;;48.00;41.33;;;;;;;;5078351;27;45575;-67
2021/11/06 05:10:17;;;;;;;;;53.33;42.67;;;;;;;;5075284;27;45417;-67
2021/11/06 05:12:42;;;;;;;;;44.25;40.00;;;;;;;;5080028;27;45293;-67
2021/11/06 05:15:08;;;;;;;;;49.33;41.67;;;;;;;;5084604;27;45424;-67
2021/11/06 05:17:34;;;;;;;;;50.00;41.75;;;;;;;;5084346;27;45419;-67
2021/11/06 05:20:00;;;;;;;;;43.25;38.50;;;;;;;;5065298;27;45512;-67
2021/11/06 05:22:25;;;;;;;;;34.25;30.00;;;;;;;;5067785;28;46310;-67
2021/11/06 05:24:50;;;;;;;;;49.00;40.00;;;;;;;;5060080;28;45942;-67
2021/11/06 05:27:15;;;;;;;;;50.67;43.00;;;;;;;;5057961;28;45489;-68
2021/11/06 05:29:41;;;;;;;;;43.67;32.33;;;;;;;;5063074;28;45279;-67
2021/11/06 05:32:06;;;;;;;;;47.67;38.33;;;;;;;;5058701;28;45408;-67
2021/11/06 05:34:31;;;;;;;;;41.00;37.25;;;;;;;;5054422;28;45438;-67
2021/11/06 05:36:56;;;;;;;;;48.33;39.67;;;;;;;;5068072;28;45380;-67
2021/11/06 05:39:22;;;;;;;;;46.33;36.33;;;;;;;;5058489;28;45531;-67
2021/11/06 05:41:47;;;;;;;;;46.00;39.75;;;;;;;;5059138;28;45382;-67
2021/11/06 05:44:13;;;;;;;;;45.00;37.67;;;;;;;;5057549;28;45292;-67
2021/11/06 05:46:38;;;;;;;;;44.33;40.33;;;;;;;;5068897;28;45362;-67
2021/11/06 05:49:03;;;;;;;;;44.00;37.33;;;;;;;;5056701;28;45358;-67
2021/11/06 05:51:28;;;;;;;;;42.00;35.67;;;;;;;;5051223;28;47911;-67
2021/11/06 05:53:53;;;;;;;;;43.00;36.33;;;;;;;;5056954;28;45510;-67
2021/11/06 05:56:19;;;;;;;;;44.00;35.00;;;;;;;;5057522;28;45427;-67
2021/11/06 05:58:45;;;;;;;;;48.25;40.25;;;;;;;;5052755;28;45962;-67
2021/11/06 06:01:10;;;;;;;;;40.25;36.25;;;;;;;;5068821;28;45691;-67
2021/11/06 06:03:35;;;;;;;;;49.25;42.50;;;;;;;;5059224;28;45491;-67
2021/11/06 06:06:01;;;;;;;;;43.67;38.33;;;;;;;;5054796;28;45483;-67
2021/11/06 06:08:26;;;;;;;;;39.00;32.33;;;;;;;;5055129;28;45512;-67
2021/11/06 06:10:52;;;;;;;;;35.50;32.00;;;;;;;;5037838;28;46201;-67
2021/11/06 06:13:17;;;;;;;;;52.00;37.50;;;;;;;;5067462;28;45378;-67
2021/11/06 06:15:42;;;;;;;;;38.00;32.33;;;;;;;;5059072;28;45451;-67
2021/11/06 06:18:08;;;;;;;;;44.00;38.33;;;;;;;;5041447;27;45465;-67
2021/11/06 06:20:33;;;;;;;;;38.75;32.75;;;;;;;;5079523;27;46055;-67
2021/11/06 06:22:58;;;;;;;;;40.33;33.67;;;;;;;;5084268;27;45354;-67
2021/11/06 06:25:24;;;;;;;;;41.67;37.67;;;;;;;;5074618;27;45457;-67
2021/11/06 06:27:49;;;;;;;;;43.00;39.75;;;;;;;;5070434;28;45442;-67
2021/11/06 06:30:16;;;;;;;;;45.75;37.50;;;;;;;;5070587;27;45832;-67
2021/11/06 06:32:41;;;;;;;;;39.50;34.25;;;;;;;;5077482;27;45500;-67
2021/11/06 06:35:08;;;;;;;;;38.33;34.67;;;;;;;;5076904;27;45440;-67
2021/11/06 06:37:33;;;;;;;;;35.75;32.75;;;;;;;;5071485;27;45926;-67
2021/11/06 06:39:58;;;;;;;;;37.50;31.00;;;;;;;;5089190;27;45658;-67
2021/11/06 06:42:23;;;;;;;;;38.00;30.67;;;;;;;;5078037;27;45516;-67
2021/11/06 06:44:49;;;;;;;;;31.33;31.33;;;;;;;;5076761;27;45531;-67
2021/11/06 06:47:15;;;;;;;;;39.75;32.00;;;;;;;;5076771;27;45325;-67
2021/11/06 06:49:40;;;;;;;;;34.75;31.75;;;;;;;;5088827;27;46353;-67
2021/11/06 06:52:05;;;;;;;;;40.33;35.00;;;;;;;;5082516;27;45335;-67
2021/11/06 06:54:31;;;;;;;;;36.50;31.50;;;;;;;;5083346;27;45321;-67
2021/11/06 06:56:56;;;;;;;;;38.33;33.00;;;;;;;;5075733;27;45443;-67
2021/11/06 06:59:21;;;;;;;;;36.67;29.00;;;;;;;;5072521;27;47672;-67
2021/11/06 07:01:47;;;;;;;;;39.33;36.33;;;;;;;;5085167;27;45544;-67
2021/11/06 07:04:12;;;;;;;;;40.25;37.25;;;;;;;;5073394;27;45551;-67
2021/11/06 07:06:37;;;;;;;;;34.00;33.00;;;;;;;;5077068;27;45425;-68
2021/11/06 07:09:03;;;;;;;;;39.67;29.00;;;;;;;;5077721;27;46984;-67
2021/11/06 07:11:28;;;;;;;;;42.00;34.75;;;;;;;;5078681;27;45464;-67
2021/11/06 07:13:54;;;;;;;;;32.67;28.33;;;;;;;;5075445;27;45628;-67
2021/11/06 07:16:19;;;;;;;;;34.25;30.25;;;;;;;;5073079;27;45376;-67
2021/11/06 07:18:44;;;;;;;;;37.00;37.00;;;;;;;;5081582;27;46369;-67
2021/11/06 07:21:10;;;;;;;;;36.00;33.33;;;;;;;;5077911;27;46814;-67
2021/11/06 07:23:35;;;;;;;;;45.33;36.33;;;;;;;;5084177;27;45799;-67
2021/11/06 07:26:01;;;;;;;;;39.75;32.00;;;;;;;;5081388;27;45360;-67
2021/11/06 07:28:28;;;;;;;;;42.50;34.50;;;;;;;;5074872;27;48341;-67
2021/11/06 07:30:53;;;;;;;;;45.75;34.00;;;;;;;;5083627;27;45948;-67
2021/11/06 07:33:18;;;;;;;;;46.67;37.67;;;;;;;;5080010;27;45501;-67
2021/11/06 07:35:43;;;;;;;;;42.33;38.00;;;;;;;;5080063;27;45304;-67
2021/11/06 07:38:09;;;;;;;;;45.00;39.33;;;;;;;;5077362;27;45546;-67
2021/11/06 07:40:34;;;;;;;;;45.25;37.00;;;;;;;;5079756;27;45638;-67
2021/11/06 07:43:01;;;;;;;;;42.00;33.67;;;;;;;;5079134;27;45486;-67
2021/11/06 07:45:26;;;;;;;;;45.50;38.00;;;;;;;;5085441;27;45485;-68
2021/11/06 07:47:51;;;;;;;;;42.67;37.67;;;;;;;;5083547;27;46454;-68
2021/11/06 07:50:18;;;;;;;;;46.67;38.67;;;;;;;;5068632;27;45542;-68
2021/11/06 07:52:43;;;;;;;;;60.75;43.25;;;;;;;;5076158;27;45535;-67
2021/11/06 07:55:08;;;;;;;;;55.67;43.00;;;;;;;;5092542;27;45376;-68
2021/11/06 07:57:34;;;;;;;;;66.33;51.00;;;;;;;;5079316;27;46476;-69
2021/11/06 07:59:59;;;;;;;;;61.33;49.00;;;;;;;;5077469;27;45458;-68
2021/11/06 08:02:24;;;;;;;;;58.00;46.67;;;;;;;;5077388;27;45543;-69
2021/11/06 08:04:50;;;;;;;;;56.75;45.00;;;;;;;;5071201;27;45701;-68
2021/11/06 08:07:15;;;;;;;;;55.50;44.25;;;;;;;;5078500;27;46184;-68
2021/11/06 08:09:40;;;;;;;;;54.33;47.00;;;;;;;;5079142;27;45450;-68
2021/11/06 08:12:05;;;;;;;;;46.75;39.00;;;;;;;;5071302;27;45426;-68
2021/11/06 08:14:31;;;;;;;;;46.75;37.00;;;;;;;;5076537;27;45333;-68
2021/11/06 08:16:56;;;;;;;;;45.33;37.33;;;;;;;;5074235;27;46476;-68
2021/11/06 08:19:24;;;;;;;;;42.50;37.75;;;;;;;;5058695;28;45512;-68
2021/11/06 08:21:50;;;;;;;;;41.50;34.25;;;;;;;;5078725;27;45527;-68
2021/11/06 08:24:16;;;;;;;;;47.50;37.00;;;;;;;;5070335;28;45493;-69
2021/11/06 08:26:42;;;;;;;;;45.25;36.00;;;;;;;;5069902;28;46085;-69
2021/11/06 08:29:07;;;;;;;;;43.25;35.25;;;;;;;;5078438;27;45455;-69
2021/11/06 08:31:33;;;;;;;;;40.67;35.00;;;;;;;;5083442;27;45430;-69
2021/11/06 08:33:58;;;;;;;;;40.00;35.00;;;;;;;;5077928;27;45543;-69
2021/11/06 08:36:23;;;;;;;;;46.50;38.00;;;;;;;;5074380;27;46665;-69
2021/11/06 08:38:49;;;;;;;;;94.50;78.00;;;;;;;;5066128;27;45392;-69
2021/11/06 08:41:14;;;;;;;;;90.00;77.25;;;;;;;;5068583;27;45322;-70
2021/11/06 08:43:39;;;;;;;;;45.25;37.75;;;;;;;;5072708;27;45272;-70
2021/11/06 08:46:05;;;;;;;;;41.25;32.75;;;;;;;;5085157;27;45513;-70
2021/11/06 08:48:30;;;;;;;;;42.00;37.50;;;;;;;;5077927;27;45560;-70
2021/11/06 08:50:56;;;;;;;;;45.33;38.00;;;;;;;;5081741;27;45492;-71
2021/11/06 08:53:21;;;;;;;;;37.00;31.00;;;;;;;;5079652;27;45386;-71
2021/11/06 08:55:46;;;;;;;;;41.33;34.33;;;;;;;;5071364;27;45379;-71
2021/11/06 08:58:11;;;;;;;;;34.33;31.33;;;;;;;;5079323;27;45508;-71
2021/11/06 09:00:40;;;;;;;;;28.00;27.00;;;;;;;;5077371;27;45326;-70
2021/11/06 09:03:07;;;;;;;;;34.50;32.75;;;;;;;;5084332;27;45937;-71
2021/11/06 09:05:32;;;;;;;;;37.25;31.00;;;;;;;;5083042;27;45532;-70
2021/11/06 09:07:58;;;;;;;;;40.50;32.50;;;;;;;;5083636;27;45657;-70
2021/11/06 09:10:23;;;;;;;;;39.75;34.00;;;;;;;;5089359;27;47341;-70
2021/11/06 09:12:49;;;;;;;;;35.33;32.00;;;;;;;;5089164;27;45478;-70
2021/11/06 09:15:15;;;;;;;;;37.50;32.00;;;;;;;;5077375;27;45616;-70
2021/11/06 09:17:40;;;;;;;;;33.50;28.00;;;;;;;;5076785;27;45428;-70
2021/11/06 09:20:06;;;;;;;;;34.00;32.33;;;;;;;;5073483;27;45646;-71
2021/11/06 09:22:32;;;;;;;;;35.75;31.75;;;;;;;;5073705;28;45568;-71
2021/11/06 09:24:57;;;;;;;;;33.67;30.67;;;;;;;;5078534;27;46342;-71
2021/11/06 09:27:22;;;;;;;;;32.50;26.75;;;;;;;;5073538;27;45568;-71
2021/11/06 09:29:50;;;;;;;;;30.50;29.25;;;;;;;;5074601;27;45738;-71
2021/11/06 09:32:15;;;;;;;;;37.00;33.25;;;;;;;;5073765;28;45576;-70
2021/11/06 09:34:41;;;;;;;;;34.75;28.25;;;;;;;;5081179;27;45459;-71
2021/11/06 09:37:06;;;;;;;;;33.75;30.25;;;;;;;;5076420;27;45867;-72
2021/11/06 09:39:32;;;;;;;;;34.75;30.50;;;;;;;;5076733;27;46310;-71
2021/11/06 09:41:57;;;;;;;;;26.25;24.75;;;;;;;;5072735;27;45541;-71
2021/11/06 09:44:27;;;;;;;;;29.00;27.00;;;;;;;;5068343;27;46527;-71
2021/11/06 09:46:52;;;;;;;;;26.75;25.25;;;;;;;;5072871;27;45644;-70
2021/11/06 09:49:17;;;;;;;;;25.25;24.00;;;;;;;;5073331;28;45531;-70
2021/11/06 09:51:43;;;;;;;;;30.75;26.25;;;;;;;;5079703;27;45307;-69
2021/11/06 09:54:09;;;;;;;;;26.00;23.25;;;;;;;;5053132;28;46189;-69
2021/11/06 09:56:34;;;;;;;;;24.33;23.33;;;;;;;;5066089;28;45407;-69
2021/11/06 09:59:02;;;;;;;;;26.75;22.50;;;;;;;;5068842;28;45702;-69
2021/11/06 10:01:28;;;;;;;;;24.25;21.75;;;;;;;;5067796;28;45283;-70
2021/11/06 10:03:54;;;;;;;;;26.25;24.00;;;;;;;;5056029;28;46620;-69
2021/11/06 10:06:20;;;;;;;;;21.25;20.50;;;;;;;;5076466;27;45479;-70
2021/11/06 10:08:46;;;;;;;;;22.50;21.00;;;;;;;;5081694;27;45587;-70
2021/11/06 10:11:13;;;;;;;;;23.75;20.75;;;;;;;;5073960;27;45433;-70
2021/11/06 10:13:47;;;;;;;;;29.00;25.75;;;;;;;;5080544;27;45565;-70
2021/11/06 10:16:12;;;;;;;;;21.50;20.00;;;;;;;;5073259;27;45823;-69
2021/11/06 10:18:37;;;;;;;;;26.33;23.00;;;;;;;;5071741;27;45415;-69
2021/11/06 10:21:04;;;;;;;;;26.00;26.00;;;;;;;;5057572;28;45474;-69
2021/11/06 10:23:31;;;;;;;;;26.75;24.00;;;;;;;;5057014;28;46182;-69
2021/11/06 10:26:16;;;;;;;;;27.50;24.00;;;;;;;;5056805;28;45764;-69
2021/11/06 10:28:42;;;;;;;;;28.25;23.25;;;;;;;;5050280;28;45355;-69
2021/11/06 10:31:07;;;;;;;;;26.00;22.25;;;;;;;;5059042;28;46504;-69
2021/11/06 10:33:42;;;;;;;;;25.67;23.00;;;;;;;;5045549;28;45391;-69
2021/11/06 10:36:15;;;;;;;;;29.50;27.00;;;;;;;;5047102;28;45640;-69
2021/11/06 10:38:41;;;;;;;;;23.75;23.50;;;;;;;;5039771;28;45420;-68
2021/11/06 10:41:08;;;;;;;;;23.00;22.33;;;;;;;;5040491;28;45552;-69
2021/11/06 10:43:35;;;;;;;;;20.00;19.25;;;;;;;;5051356;28;46205;-69
2021/11/06 10:46:03;;;;;;;;;21.75;21.75;;;;;;;;5050944;28;45892;-69
2021/11/06 10:48:33;;;;;;;;;22.50;16.50;;;;;;;;5052761;28;45561;-70
2021/11/06 10:51:05;;;;;;;;;21.25;16.25;;;;;;;;5045125;28;45330;-72
2021/11/06 10:53:41;;;;;;;;;14.25;14.25;;;;;;;;5049973;28;45487;-72
2021/11/06 10:56:13;;;;;;;;;13.00;12.00;;;;;;;;5040576;28;47522;-68
2021/11/06 10:58:38;;;;;;;;;16.00;14.00;;;;;;;;5054216;28;45383;-69
2021/11/06 11:01:08;;;;;;;;;16.67;15.00;;;;;;;;5054634;28;45484;-68
2021/11/06 11:03:38;;;;;;;;;16.75;15.00;;;;;;;;5064093;28;46019;-67
2021/11/06 11:06:10;;;;;;;;;14.75;13.00;;;;;;;;5049826;28;45437;-67
2021/11/06 11:09:02;;;;;;;;;13.75;13.25;;;;;;;;5050676;28;45481;-67
2021/11/06 11:11:29;;;;;;;;;19.75;16.75;;;;;;;;5040633;28;45429;-67
2021/11/06 11:13:56;;;;;;;;;13.25;12.75;;;;;;;;5038818;28;47341;-68
2021/11/06 11:16:23;;;;;;;;;16.75;14.50;;;;;;;;5054691;28;45781;-67
2021/11/06 11:18:52;;;;;;;;;14.25;12.75;;;;;;;;5049887;28;45397;-67
2021/11/06 11:21:18;;;;;;;;;13.25;12.00;;;;;;;;5064345;28;45280;-67
2021/11/06 11:24:03;;;;;;;;;11.33;9.33;;;;;;;;5094438;27;46570;-67
2021/11/06 11:26:31;;;;;;;;;13.50;11.50;;;;;;;;5068747;27;45663;-67
2021/11/06 11:28:57;;;;;;;;;14.50;11.50;;;;;;;;5071533;27;45499;-67
2021/11/06 11:31:25;;;;;;;;;13.75;11.00;;;;;;;;5071641;28;45421;-67
2021/11/06 11:33:50;;;;;;;;;13.75;10.75;;;;;;;;5061755;28;45391;-67
2021/11/06 11:36:17;;;;;;;;;12.00;10.00;;;;;;;;5058996;28;45688;-67
2021/11/06 11:38:43;;;;;;;;;9.25;8.00;;;;;;;;5065730;28;45268;-67
2021/11/06 11:41:14;;;;;;;;;12.75;10.00;;;;;;;;5077332;27;45444;-67
2021/11/06 11:44:03;;;;;;;;;9.25;9.25;;;;;;;;5073708;27;45792;-67
2021/11/06 11:46:48;;;;;;;;;9.50;9.00;;;;;;;;5055261;28;45627;-67
2021/11/06 11:49:14;;;;;;;;;10.25;8.25;;;;;;;;5075210;27;45286;-67
2021/11/06 11:51:39;;;;;;;;;8.25;8.25;;;;;;;;5064179;28;45484;-67
2021/11/06 11:54:06;;;;;;;;;10.25;8.25;;;;;;;;5072168;27;46310;-67
2021/11/06 11:56:32;;;;;;;;;20.00;18.00;;;;;;;;5068670;28;45503;-67
2021/11/06 11:58:57;;;;;;;;;6.50;6.50;;;;;;;;5068920;28;45444;-67
2021/11/06 12:01:23;;;;;;;;;10.00;8.75;;;;;;;;5059418;27;45479;-68
2021/11/06 12:03:49;;;;;;;;;7.50;7.50;;;;;;;;5065806;27;46594;-68
2021/11/06 12:06:24;;;;;;;;;10.00;9.25;;;;;;;;5027586;22;46872;-69
2021/11/06 12:08:50;;;;;;;;;7.25;7.25;;;;;;;;5033170;28;45748;-67
2021/11/06 12:11:21;;;;;;;;;6.75;6.00;;;;;;;;5029521;28;45551;-67
2021/11/06 12:13:50;;;;;;;;;8.00;7.00;;;;;;;;5032588;28;47113;-67
2021/11/06 12:16:20;;;;;;;;;5.25;5.25;;;;;;;;5027275;28;45810;-67
2021/11/06 12:18:48;;;;;;;;;7.25;7.00;;;;;;;;5023787;28;45355;-67
2021/11/06 12:21:20;;;;;;;;;9.00;6.00;;;;;;;;5028449;28;45486;-68
2021/11/06 12:23:47;;;;;;;;;6.00;6.00;;;;;;;;5029091;28;51037;-68
2021/11/06 12:26:17;;;;;;;;;7.00;7.00;;;;;;;;5031262;28;45842;-67
2021/11/06 12:28:43;;;;;;;;;6.75;6.75;;;;;;;;5032396;28;45748;-68
2021/11/06 12:31:27;;;;;;;;;8.00;8.00;;;;;;;;5032258;28;45666;-68
2021/11/06 12:33:52;;;;;;;;;7.00;7.00;;;;;;;;5029623;28;45566;-69
2021/11/06 12:36:22;;;;;;;;;10.75;5.75;;;;;;;;5034990;28;45387;-68
2021/11/06 12:38:48;;;;;;;;;5.00;4.50;;;;;;;;5037096;28;45443;-68
2021/11/06 12:41:13;;;;;;;;;7.00;7.00;;;;;;;;5037970;28;45502;-68
2021/11/06 12:43:51;;;;;;;;;8.00;6.00;;;;;;;;5031765;28;45374;-69
2021/11/06 12:46:27;;;;;;;;;7.75;6.00;;;;;;;;5050238;28;45484;-68
2021/11/06 12:48:57;;;;;;;;;8.75;6.25;;;;;;;;5032841;28;45404;-68
2021/11/06 12:51:26;;;;;;;;;7.00;5.25;;;;;;;;5028994;28;45541;-68
2021/11/06 12:53:53;;;;;;;;;8.25;5.75;;;;;;;;5024202;28;45728;-68
2021/11/06 12:56:20;;;;;;;;;4.50;4.50;;;;;;;;5031685;28;45392;-68
2021/11/06 12:58:47;;;;;;;;;5.50;5.50;;;;;;;;5023517;28;45420;-68
2021/11/06 13:01:25;;;;;;;;;5.00;5.00;;;;;;;;5037844;28;45587;-68
2021/11/06 13:03:50;;;;;;;;;6.00;4.00;;;;;;;;5037146;28;45500;-68
2021/11/06 13:06:16;;;;;;;;;4.50;4.50;;;;;;;;5036224;28;45373;-68
2021/11/06 13:08:41;;;;;;;;;6.00;6.00;;;;;;;;5053202;28;45390;-68
2021/11/06 13:11:07;;;;;;;;;8.00;6.67;;;;;;;;5052818;28;45447;-68
2021/11/06 13:13:32;;;;;;;;;9.67;7.00;;;;;;;;5042952;28;46285;-68
2021/11/06 13:15:58;;;;;;;;;7.67;6.33;;;;;;;;5051394;28;45516;-69
2021/11/06 13:18:23;;;;;;;;;8.25;7.00;;;;;;;;5043355;28;45361;-68
2021/11/06 13:20:51;;;;;;;;;7.00;5.25;;;;;;;;5048444;28;45591;-68
2021/11/06 13:23:16;;;;;;;;;8.75;7.25;;;;;;;;5053524;28;46304;-68
2021/11/06 13:25:43;;;;;;;;;6.50;6.00;;;;;;;;5056978;28;45378;-68
2021/11/06 13:28:09;;;;;;;;;9.75;7.00;;;;;;;;5052509;28;45536;-68
2021/11/06 13:30:34;;;;;;;;;6.00;5.75;;;;;;;;5044346;28;45735;-68
2021/11/06 13:33:18;;;;;;;;;6.75;6.00;;;;;;;;5042431;28;46081;-68
2021/11/06 13:36:19;;;;;;;;;21.25;20.00;;;;;;;;5042504;28;45472;-68
2021/11/06 13:39:00;;;;;;;;;9.75;9.25;;;;;;;;5011295;28;45741;-68
2021/11/06 13:41:25;;;;;;;;;5.00;4.50;;;;;;;;5001237;28;45550;-68
2021/11/06 13:43:58;;;;;;;;;9.50;5.25;;;;;;;;4999733;28;45502;-69
2021/11/06 13:46:43;;;;;;;;;6.75;6.75;;;;;;;;5011983;28;45711;-69
2021/11/06 13:49:23;;;;;;;;;5.25;5.25;;;;;;;;5006650;28;45479;-69
2021/11/06 13:52:01;;;;;;;;;9.50;8.50;;;;;;;;5009918;28;45492;-69
2021/11/06 13:54:39;;;;;;;;;9.75;6.00;;;;;;;;5006360;28;47042;-69
2021/11/06 13:57:06;;;;;;;;;7.00;6.75;;;;;;;;5011899;28;45363;-69
2021/11/06 13:59:34;;;;;;;;;8.00;7.50;;;;;;;;5011546;28;45415;-69
2021/11/06 14:02:03;;;;;;;;;8.00;7.75;;;;;;;;5001889;28;45396;-69
2021/11/06 14:04:29;;;;;;;;;9.50;8.50;;;;;;;;5009722;28;47144;-69
2021/11/06 14:06:54;;;;;;;;;5.25;5.25;;;;;;;;5011584;28;45755;-69
2021/11/06 14:09:21;;;;;;;;;9.50;9.50;;;;;;;;5008316;28;45570;-69
2021/11/06 14:11:51;;;;;;;;;6.50;6.50;;;;;;;;5007663;28;45594;-69
2021/11/06 14:14:18;;;;;;;;;7.25;6.75;;;;;;;;5047852;28;46400;-69
2021/11/06 14:16:43;;;;;;;;;9.00;7.00;;;;;;;;5040363;28;45813;-68
2021/11/06 14:19:09;;;;;;;;;11.00;7.00;;;;;;;;5042086;28;45405;-69